Capitol Logistics 1121


EBLG
Liège Airport
Liege, BE
ENGM
Oslo Airport Gardermoen
Oslo, NO

Activity Log

Date Flight Route Aircraft Duration
12/21/2019 CPX1121 EBLG BUB7S BUB M624 TOLEN N873 SPY AMADA PIPEX M609 RIPAM RIPA4M ENGM B738 1h 39m
10/21/2019 CPX721 Not Available B738 1h 56m
09/28/2019 CPX721 N0449F360 BUB7S BUB UM624 TOLEN UN873 SPY/N0448F350 UZ704 AMADA Z704 PIPEX/N0427F290 M609 RIPAM RIPA4M B738 2h 02m

Route Details

Aircraft Information
Primary: Boeing 737-800BCF
Backup: Not Available
Route Data
Distance: 606nm
Sched. Duration: 1h 44m
Avg. Duration: 1h 66m (+21m)
Times Flown: 3
Recm'd Route: Not Available
Planned Altitude: 35,000ft
Origin Wx: EBLG 030320Z 26003KT 230V290 CAVOK 14/08 Q1009 NOSIG
Dest. Wx: ENGM 030320Z 03004KT CAVOK 08/03 Q1009
Notes:

Financial History
Total Freight: 124,080lbs
Average Load: 41,360lbs/flt
Fuel Used: 29,412lbs
Avg. Fuel Used: 9,804lbs/flt
Fuel Expense: $32,647
Avg. Fuel Expense: $10,882
Avg. Fuel Cost: $1.11/lbs
Total Gross Income: $282,850
Pilot Pay: $687
Total Expenses: $30,704
Total Revenue: $218,185
Average Revenue: $94,283.20